Terminal Aerodrome Forecast
Issued by NWS Greer, SC

Home | Current Version | Previous Version | Text Only | Print | Product List | Glossary On
Versions: 1 2 3 4 5 6 7 8 9 10 11 12 13 14 15 16 17 18 19 20 21 22 23 24 25 26 27 28 29 30 31 32 33 34 35 36
000
FTUS42 KGSP 051301 AAA
TAFAVL
TAF AMD
KAVL 051301Z 0513/0612 00000KT P6SM BKN026
      TEMPO 0513/0516 SCT026
     FM051600 16005KT P6SM VCTS BKN050CB
     FM052100 14005KT P6SM BKN040 PROB30 0522/0602 3SM TSRA BKN030CB
     FM060200 00000KT P6SM OVC045
     FM060600 36003KT 6SM BR OVC025
     FM060800 36003KT 5SM BR OVC015=

USA.gov is the U.S. government's official web portal to all federal, state and local government web resources and services.